Terminal Aerodrome Forecast
Issued by NWS

Current Version | Previous Version | Text Only | Print | Product List | Glossary On
Versions: 1 2 3 4 5 6 7 8 9 10 11 12 13 14 15 16 17 18 19 20 21 22 23 24 25 26 27 28 29 30 31 32 33
000
FTUS41 KRNK 101126
TAFLWB
TAF
KLWB 101126Z 1012/1112 27007G15KT P6SM -SHSN OVC020
      TEMPO 1012/1016 3SM -SHSN OVC012
     FM101600 28010G18KT 6SM -SHSN OVC025
     FM102100 29009G16KT P6SM BKN035
     FM110000 29008KT P6SM BKN030
     FM110600 29006G18KT P6SM BKN050=

USA.gov is the U.S. government's official web portal to all federal, state and local government web resources and services.